الصفحة الرئيسية
METAR-TAF:

METAR-TAF

مطار :

مطار الأمير سعيد إبراهيم الدولي

موروني, جزر القمر

دائرة عرض: 11-32S, خط طول: 043-16E, ارتفاع: 29 متر

مراقبة الطقس الحالي

تاريخ ووقت الإصدار 42 دقيقة قبل الساعة 07:00UTC
ريح 13 عقدة من الشمال, الاتجاه يتراوح بين الشمال الغربي و الشمال/الشمال الشرقي
درجة الحرارة 32°درجة مئوية
الرطوبة 59%
ضغط 1012 hPa
الرؤية 10 كم أو أكثر
غيوم قليلة على ارتفاع 2000 قدم

METAR: FMCH 150700Z 35013KT 320V020 9999 FEW020 32/23 Q1012 NOSIG

زمن: 10:42 (07:42 UTC)

توقعات

تاريخ ووقت الإصدار 2ساعات و 42 دقيقة قبل الساعة 05:00UTC
التوقعات صالحة من15 الساعة 06 UTC إلى 16 الساعة 12 UTC
ريح 12 عقدة من الشرق
الرؤية 10 كم أو أكثر
غيوم قليلة على ارتفاع 2000 قدم, مزن ركامية عمودية.
غيوم متفرقة على ارتفاع 3000 قدم
نظرية الاحتمالات 30% :
مؤقت
من 15 الساعة 09 UTC إلى 15 الساعة 15 UTC
الرؤية: 4500 متر
زخات من المطر
أصبح
من 15 الساعة 15 UTC إلى 15 الساعة 18 UTC
ريح 5 عقدة من الشمال

TAF: FMCH 150500Z 1506/1612 10012KT 9999 FEW020TCU SCT030 PROB30 TEMPO 1509/1515 4500 SHRA BECMG 1515/1518 01005KT

أرصاد الطقس والتوقعات من أكثر من 4000 مطار (تقارير الطقس للمطار METAR والتنبؤ بالطقس بالمطارTAF).

المحطات المتاحة هي النقط الصفراء والحمراء على الخريطة.

حرك المؤشر فوق النقطة لمعرفة اسم المحطة.

ثم انقر لمعرفة أرصاد وتوقعات الطقس.

لتغيير الخارطة: اضغط على الأزرار الخضراء مع رمز الصليب الأسود للتكبير. على الزر الأخضر مع شرطة للتصغير، أو على الأسهم الخضراء للخرائط المجاورة.


METAR-TAF: